Time;durP1;ratioP1;P1;durP2;ratioP2;P2;SDS_P1;SDS_P2;PMS_P1;PMS_P2;Temp;Humidity;BMP_temperature;BMP_pressure;BME280_temperature;BME280_humidity;BME280_pressure;Samples;Min_cycle;Max_cycle;Signal;HPM_P1;HPM_P2
2021/01/18 00:00:29;;;;;;;15.67;10.63;;;5.80;99.90;;;;;;5114773;28;20194;-85
2021/01/18 00:02:54;;;;;;;24.03;10.90;;;5.70;99.90;;;;;;5114829;28;20184;-86
2021/01/18 00:05:20;;;;;;;23.67;11.07;;;5.70;99.90;;;;;;5113050;28;20179;-86
2021/01/18 00:07:50;;;;;;;21.03;11.37;;;5.80;99.90;;;;;;5114630;28;20632;-86
2021/01/18 00:10:21;;;;;;;22.10;11.20;;;5.80;99.90;;;;;;5113721;28;20194;-86
2021/01/18 00:12:48;;;;;;;22.37;10.80;;;5.90;99.90;;;;;;5114911;28;20265;-85
2021/01/18 00:15:15;;;;;;;22.27;11.43;;;5.80;99.90;;;;;;5113129;28;20201;-86
2021/01/18 00:17:42;;;;;;;23.63;10.77;;;5.70;99.90;;;;;;5113450;28;20191;-86
2021/01/18 00:20:09;;;;;;;22.93;11.83;;;5.60;99.90;;;;;;5113829;28;20210;-86
2021/01/18 00:22:39;;;;;;;20.63;11.90;;;5.60;99.90;;;;;;5101941;28;20195;-85
2021/01/18 00:25:07;;;;;;;14.53;9.93;;;5.60;99.90;;;;;;5114456;28;20183;-85
2021/01/18 00:27:33;;;;;;;21.93;11.27;;;5.60;99.90;;;;;;5095830;28;20303;-85
2021/01/18 00:29:58;;;;;;;21.43;10.27;;;5.40;99.90;;;;;;5089751;28;20198;-83
2021/01/18 00:32:24;;;;;;;21.50;9.87;;;5.40;99.90;;;;;;5080629;28;20255;-86
2021/01/18 00:34:50;;;;;;;20.13;10.70;;;5.40;99.90;;;;;;5092280;28;20178;-86
2021/01/18 00:37:15;;;;;;;17.80;10.00;;;5.50;99.90;;;;;;5106461;27;20695;-83
2021/01/18 00:39:43;;;;;;;20.53;10.53;;;5.50;99.90;;;;;;5123580;27;20179;-84
2021/01/18 00:42:10;;;;;;;18.70;10.47;;;5.50;99.90;;;;;;5123858;27;20178;-85
2021/01/18 00:44:35;;;;;;;20.23;9.93;;;5.40;99.90;;;;;;5105795;27;20194;-86
2021/01/18 00:47:01;;;;;;;17.53;9.80;;;5.40;99.90;;;;;;5103590;27;20197;-85
2021/01/18 00:49:27;;;;;;;18.93;9.97;;;5.50;99.90;;;;;;5122198;27;20215;-86
2021/01/18 00:51:53;;;;;;;20.07;10.57;;;5.40;99.90;;;;;;5103720;27;20528;-83
2021/01/18 00:54:18;;;;;;;17.23;9.83;;;5.30;99.90;;;;;;5109081;27;20186;-83
2021/01/18 00:56:49;;;;;;;18.37;10.30;;;5.40;99.90;;;;;;5121236;27;20190;-82
2021/01/18 00:59:15;;;;;;;18.67;10.27;;;5.40;99.90;;;;;;5108459;28;20210;-84
2021/01/18 01:01:42;;;;;;;22.50;11.30;;;5.40;99.90;;;;;;5103400;28;20186;-85
2021/01/18 01:04:07;;;;;;;19.90;10.63;;;5.30;99.90;;;;;;5097016;28;20186;-82
2021/01/18 01:06:33;;;;;;;17.13;10.13;;;5.30;99.90;;;;;;5095153;28;20186;-82
2021/01/18 01:09:00;;;;;;;17.70;10.20;;;5.30;99.90;;;;;;5111818;28;20304;-85
2021/01/18 01:11:25;;;;;;;20.93;11.30;;;5.30;99.90;;;;;;5113585;27;20239;-85
2021/01/18 01:13:51;;;;;;;18.67;10.53;;;5.30;99.90;;;;;;5133070;28;20665;-86
2021/01/18 01:16:17;;;;;;;17.83;9.60;;;5.20;99.90;;;;;;5113532;28;20543;-87
2021/01/18 01:18:43;;;;;;;21.87;10.80;;;5.20;99.90;;;;;;5115339;28;20200;-86
2021/01/18 01:21:09;;;;;;;23.13;10.90;;;5.20;99.90;;;;;;5137157;27;20190;-86
2021/01/18 01:23:35;;;;;;;17.33;10.17;;;5.30;99.90;;;;;;5100547;28;20249;-85
2021/01/18 01:26:01;;;;;;;22.07;10.60;;;5.20;99.90;;;;;;5117892;28;20187;-86
2021/01/18 01:28:27;;;;;;;18.00;10.50;;;5.30;99.90;;;;;;5099591;28;20255;-86
2021/01/18 01:30:52;;;;;;;21.73;10.90;;;5.40;99.90;;;;;;5117769;28;20194;-85
2021/01/18 01:33:18;;;;;;;21.00;10.77;;;5.20;99.90;;;;;;5117625;28;20179;-86
2021/01/18 01:35:44;;;;;;;21.83;11.00;;;5.20;99.90;;;;;;5099758;28;20226;-87
2021/01/18 01:38:10;;;;;;;19.37;11.33;;;5.30;99.90;;;;;;5099687;28;20186;-87
2021/01/18 01:40:36;;;;;;;20.90;11.60;;;5.20;99.90;;;;;;5117931;28;20190;-86
2021/01/18 01:43:03;;;;;;;19.30;10.40;;;5.20;99.90;;;;;;5099375;28;20198;-86
2021/01/18 01:45:28;;;;;;;16.27;10.20;;;5.20;99.90;;;;;;5099299;28;20239;-86
2021/01/18 01:47:56;;;;;;;20.10;10.73;;;5.20;99.90;;;;;;5099372;28;20219;-81
2021/01/18 01:50:21;;;;;;;16.43;10.13;;;5.20;99.90;;;;;;5099396;28;20167;-85
2021/01/18 01:52:51;;;;;;;18.67;10.13;;;5.10;99.90;;;;;;5099225;28;20186;-87
2021/01/18 01:55:29;;;;;;;18.47;9.70;;;5.30;99.90;;;;;;5099150;28;20264;-87
2021/01/18 01:57:56;;;;;;;20.97;10.40;;;5.40;99.90;;;;;;5098906;28;20190;-83
2021/01/18 02:00:23;;;;;;;20.00;11.13;;;5.30;99.90;;;;;;5117155;28;20187;-87
2021/01/18 02:02:52;;;;;;;22.83;11.00;;;5.30;99.90;;;;;;5117192;28;20215;-85
2021/01/18 02:05:18;;;;;;;21.60;11.87;;;5.40;99.90;;;;;;5099039;28;20186;-85
2021/01/18 02:07:43;;;;;;;21.83;11.50;;;5.40;99.90;;;;;;5098948;28;20225;-86
2021/01/18 02:10:10;;;;;;;23.17;11.50;;;5.40;99.90;;;;;;5098938;28;20248;-84
2021/01/18 02:12:36;;;;;;;18.13;10.80;;;5.40;99.90;;;;;;5098757;28;20194;-86
2021/01/18 02:15:23;;;;;;;21.23;10.70;;;5.20;99.90;;;;;;5098846;28;20191;-85
2021/01/18 02:18:15;;;;;;;20.97;10.33;;;5.20;99.90;;;;;;5098727;28;20236;-82
2021/01/18 02:21:18;;;;;;;22.97;10.87;;;5.20;99.90;;;;;;5098547;28;20343;-85
2021/01/18 02:24:05;;;;;;;22.40;10.10;;;5.20;99.90;;;;;;5098461;28;20190;-86
2021/01/18 02:26:49;;;;;;;21.43;10.90;;;5.30;99.90;;;;;;5098632;28;20186;-87
2021/01/18 02:29:32;;;;;;;20.63;10.47;;;5.20;99.90;;;;;;5098300;28;20210;-85
2021/01/18 02:32:26;;;;;;;21.07;11.07;;;5.30;99.90;;;;;;5097665;28;20635;-85
2021/01/18 02:35:16;;;;;;;19.30;10.27;;;5.30;99.90;;;;;;5098499;28;20206;-83
2021/01/18 02:38:09;;;;;;;20.23;10.33;;;5.20;99.90;;;;;;5116661;28;20238;-85
2021/01/18 02:41:16;;;;;;;17.80;9.83;;;5.00;99.90;;;;;;5098334;28;20183;-85
2021/01/18 02:43:48;;;;;;;21.30;11.27;;;5.00;99.90;;;;;;5089922;28;20191;-86
2021/01/18 02:46:16;;;;;;;19.87;10.50;;;4.90;99.90;;;;;;5098094;28;20183;-85
2021/01/18 02:48:42;;;;;;;19.40;10.33;;;5.00;99.90;;;;;;5098281;28;20297;-85
2021/01/18 02:51:11;;;;;;;26.07;11.20;;;4.90;99.90;;;;;;5098434;28;20213;-86
2021/01/18 02:53:38;;;;;;;17.40;9.87;;;5.10;99.90;;;;;;5115380;28;20199;-86
2021/01/18 02:56:05;;;;;;;20.50;10.33;;;5.00;99.90;;;;;;5098058;28;20187;-82
2021/01/18 02:58:34;;;;;;;21.47;10.43;;;5.10;99.90;;;;;;5097555;28;20324;-87
2021/01/18 03:01:22;;;;;;;18.33;10.27;;;5.00;99.90;;;;;;5116098;28;20248;-86
2021/01/18 03:03:54;;;;;;;19.97;10.30;;;5.00;99.90;;;;;;5098148;28;20191;-86
2021/01/18 03:06:47;;;;;;;21.00;10.87;;;4.80;99.90;;;;;;5116173;28;20178;-85
2021/01/18 03:09:20;;;;;;;19.37;10.23;;;4.80;99.90;;;;;;5097809;28;20239;-82
2021/01/18 03:11:49;;;;;;;18.20;9.87;;;4.80;99.90;;;;;;5116007;28;20183;-85
2021/01/18 03:14:31;;;;;;;17.63;10.23;;;4.60;99.90;;;;;;5097471;28;20183;-86
2021/01/18 03:16:58;;;;;;;19.83;10.63;;;4.70;99.90;;;;;;5097701;28;20666;-87
2021/01/18 03:19:42;;;;;;;20.10;9.77;;;4.70;99.90;;;;;;5097061;28;20186;-85
2021/01/18 03:22:28;;;;;;;18.03;10.27;;;4.80;99.90;;;;;;5115878;28;20194;-86
2021/01/18 03:25:08;;;;;;;22.47;12.30;;;4.70;99.90;;;;;;5115218;28;20218;-85
2021/01/18 03:27:57;;;;;;;18.23;10.67;;;4.60;99.90;;;;;;5096942;28;20214;-84
2021/01/18 03:30:24;;;;;;;20.70;10.67;;;4.70;99.90;;;;;;5097223;28;20298;-85
2021/01/18 03:32:55;;;;;;;26.23;11.07;;;4.70;99.90;;;;;;5097323;28;20189;-86
2021/01/18 03:35:21;;;;;;;19.23;10.23;;;4.60;99.90;;;;;;5097040;28;20559;-87
2021/01/18 03:37:55;;;;;;;20.97;9.80;;;4.60;99.90;;;;;;5096940;28;20195;-86
2021/01/18 03:40:22;;;;;;;23.93;11.43;;;4.50;99.90;;;;;;5115282;28;20192;-87
2021/01/18 03:43:08;;;;;;;23.20;11.63;;;4.50;99.90;;;;;;5096804;28;20224;-86
2021/01/18 03:45:42;;;;;;;20.67;10.60;;;4.50;99.90;;;;;;5097043;28;20239;-84
2021/01/18 03:48:09;;;;;;;17.47;10.43;;;4.50;99.90;;;;;;5097159;28;20218;-86
2021/01/18 03:50:37;;;;;;;23.90;11.03;;;4.40;99.90;;;;;;5096726;28;20222;-86
2021/01/18 03:53:03;;;;;;;25.37;11.87;;;4.40;99.90;;;;;;5096597;28;21064;-83
2021/01/18 03:55:29;;;;;;;20.17;9.93;;;4.30;99.90;;;;;;5096844;28;20386;-82
2021/01/18 03:57:56;;;;;;;18.63;10.70;;;4.30;99.90;;;;;;5096942;28;20285;-84
2021/01/18 04:00:27;;;;;;;24.53;11.63;;;4.30;99.90;;;;;;5097566;28;20191;-85
2021/01/18 04:02:53;;;;;;;19.07;11.27;;;4.20;99.90;;;;;;5114510;28;20187;-81
2021/01/18 04:05:20;;;;;;;20.23;10.97;;;4.20;99.90;;;;;;5125875;28;20258;-83
2021/01/18 04:07:46;;;;;;;20.93;10.73;;;4.10;99.90;;;;;;5115137;28;20240;-83
2021/01/18 04:10:15;;;;;;;19.27;10.93;;;4.10;99.90;;;;;;5114656;28;20565;-86
2021/01/18 04:12:44;;;;;;;19.47;10.60;;;4.10;99.90;;;;;;5097018;28;20715;-83
2021/01/18 04:15:11;;;;;;;22.33;10.70;;;4.10;99.90;;;;;;5096423;28;20204;-84
2021/01/18 04:17:41;;;;;;;19.10;10.97;;;4.10;99.90;;;;;;5096517;28;20662;-86
2021/01/18 04:20:08;;;;;;;16.20;10.07;;;4.20;99.90;;;;;;5114485;28;20182;-85
2021/01/18 04:22:34;;;;;;;22.03;11.97;;;4.20;99.90;;;;;;5096240;28;20191;-85
2021/01/18 04:25:00;;;;;;;21.40;10.87;;;4.20;99.90;;;;;;5113600;28;20234;-86
2021/01/18 04:27:25;;;;;;;26.43;11.23;;;4.20;99.90;;;;;;5114494;28;20688;-82
2021/01/18 04:29:51;;;;;;;21.13;10.93;;;4.10;99.90;;;;;;5114648;28;20198;-85
2021/01/18 04:32:16;;;;;;;21.40;10.67;;;4.10;99.90;;;;;;5096820;28;20190;-85
2021/01/18 04:34:42;;;;;;;29.10;12.87;;;4.00;99.90;;;;;;5114279;28;20171;-82
2021/01/18 04:37:08;;;;;;;19.63;10.97;;;4.10;99.90;;;;;;5114461;28;20177;-83
2021/01/18 04:39:34;;;;;;;15.47;9.80;;;4.10;99.90;;;;;;5095999;28;20273;-84
2021/01/18 04:42:00;;;;;;;22.00;11.53;;;4.10;99.90;;;;;;5096207;28;20651;-85
2021/01/18 04:44:27;;;;;;;23.20;11.23;;;4.10;99.90;;;;;;5096016;28;20178;-85
2021/01/18 04:46:55;;;;;;;25.70;11.63;;;4.10;99.90;;;;;;5113747;28;20261;-86
2021/01/18 04:49:21;;;;;;;22.93;11.70;;;4.10;99.90;;;;;;5096082;28;20698;-85
2021/01/18 04:51:50;;;;;;;21.83;10.43;;;3.90;99.90;;;;;;5095714;28;20213;-85
2021/01/18 04:54:18;;;;;;;19.63;10.80;;;3.80;99.90;;;;;;5113031;28;20183;-85
2021/01/18 04:57:22;;;;;;;21.93;11.00;;;3.90;99.90;;;;;;5095110;28;20189;-85
2021/01/18 04:59:49;;;;;;;21.07;11.40;;;3.80;99.90;;;;;;5062361;28;20194;-86
2021/01/18 05:02:23;;;;;;;16.07;9.93;;;3.80;99.90;;;;;;5095719;28;20189;-87
2021/01/18 05:04:51;;;;;;;20.20;11.20;;;3.80;99.90;;;;;;5095796;28;20182;-84
2021/01/18 05:07:42;;;;;;;22.37;10.30;;;3.80;99.90;;;;;;5113624;28;20210;-86
2021/01/18 05:10:09;;;;;;;20.03;9.77;;;3.80;99.90;;;;;;5113675;28;20190;-87
2021/01/18 05:12:39;;;;;;;19.53;10.30;;;4.00;99.90;;;;;;5113631;28;20187;-86
2021/01/18 05:15:14;;;;;;;20.07;10.63;;;3.90;99.90;;;;;;5096053;28;20232;-83
2021/01/18 05:17:42;;;;;;;19.27;9.90;;;3.70;99.90;;;;;;5095612;28;20227;-87
2021/01/18 05:20:10;;;;;;;21.20;10.40;;;3.60;99.90;;;;;;5113984;28;20258;-85
2021/01/18 05:22:36;;;;;;;23.60;9.80;;;3.60;99.90;;;;;;5113458;28;20217;-84
2021/01/18 05:25:05;;;;;;;18.40;10.03;;;3.50;99.90;;;;;;5095270;28;20633;-87
2021/01/18 05:27:31;;;;;;;22.20;10.73;;;3.50;99.90;;;;;;5095331;28;20175;-87
2021/01/18 05:29:59;;;;;;;17.53;10.40;;;3.60;99.90;;;;;;5113957;28;20248;-87
2021/01/18 05:32:26;;;;;;;21.80;9.60;;;3.50;99.90;;;;;;5095286;28;20290;-85
2021/01/18 05:35:11;;;;;;;23.83;11.23;;;3.60;99.90;;;;;;5113766;28;20228;-82
2021/01/18 05:37:55;;;;;;;21.20;9.83;;;3.60;99.90;;;;;;5094847;28;20183;-86
2021/01/18 05:40:22;;;;;;;19.63;9.27;;;3.60;99.90;;;;;;5095476;28;20677;-86
2021/01/18 05:42:51;;;;;;;20.93;10.37;;;3.80;99.90;;;;;;5113784;28;20186;-87
2021/01/18 05:45:36;;;;;;;16.77;10.53;;;3.70;99.90;;;;;;5095528;28;20183;-86
2021/01/18 05:48:04;;;;;;;20.60;10.50;;;3.70;99.90;;;;;;5095516;28;20318;-88
2021/01/18 05:50:31;;;;;;;20.40;10.03;;;3.80;99.90;;;;;;5113674;28;20555;-87
2021/01/18 05:52:57;;;;;;;17.40;9.77;;;3.70;99.90;;;;;;5095210;28;20193;-87
2021/01/18 05:55:31;;;;;;;17.97;9.40;;;3.90;99.90;;;;;;5095101;28;20195;-83
2021/01/18 05:58:01;;;;;;;15.53;10.03;;;3.80;99.90;;;;;;5094992;28;20175;-83
2021/01/18 06:00:37;;;;;;;18.03;10.83;;;3.70;99.90;;;;;;5095271;28;20182;-87
2021/01/18 06:03:08;;;;;;;18.67;9.87;;;3.70;99.90;;;;;;5095108;28;20193;-85
2021/01/18 06:05:36;;;;;;;16.27;9.70;;;3.80;99.90;;;;;;5095593;28;20198;-85
2021/01/18 06:08:15;;;;;;;17.33;9.30;;;3.90;99.90;;;;;;5115352;28;20249;-85
2021/01/18 06:10:43;;;;;;;16.73;9.37;;;3.90;99.90;;;;;;5098882;28;20183;-84
2021/01/18 06:13:29;;;;;;;18.70;9.50;;;3.70;99.90;;;;;;5098599;28;20183;-85
2021/01/18 06:16:01;;;;;;;18.70;9.30;;;3.80;99.90;;;;;;5098644;28;20312;-86
2021/01/18 06:18:29;;;;;;;17.87;10.97;;;3.80;99.90;;;;;;5133058;27;20182;-85
2021/01/18 06:20:58;;;;;;;20.10;11.03;;;3.80;99.90;;;;;;5097907;28;20643;-81
2021/01/18 06:23:25;;;;;;;19.53;10.53;;;3.80;99.90;;;;;;5116093;28;20739;-86
2021/01/18 06:25:52;;;;;;;18.97;10.23;;;3.70;99.90;;;;;;5098137;28;20210;-84
2021/01/18 06:28:24;;;;;;;16.27;8.97;;;3.80;99.90;;;;;;5097568;28;20721;-86
2021/01/18 06:31:11;;;;;;;16.87;8.77;;;3.80;99.90;;;;;;5131597;27;20183;-82
2021/01/18 06:33:47;;;;;;;16.47;9.43;;;3.70;99.90;;;;;;5097834;28;20239;-81
2021/01/18 06:36:18;;;;;;;16.27;9.23;;;3.70;99.90;;;;;;5115791;28;20183;-88
2021/01/18 06:38:58;;;;;;;16.43;9.37;;;3.70;99.90;;;;;;5115981;28;20269;-84
2021/01/18 06:41:29;;;;;;;21.17;10.50;;;3.70;99.90;;;;;;5116901;28;20182;-84
2021/01/18 06:43:56;;;;;;;28.80;11.17;;;3.70;99.90;;;;;;5117561;28;20185;-90
2021/01/18 06:46:25;;;;;;;18.87;9.63;;;3.80;99.90;;;;;;5097907;28;20696;-83
2021/01/18 06:48:51;;;;;;;17.97;10.27;;;3.80;99.90;;;;;;5098133;28;20219;-87
2021/01/18 06:51:22;;;;;;;20.17;10.10;;;3.80;99.90;;;;;;5099549;28;20248;-84
2021/01/18 06:53:49;;;;;;;19.10;10.37;;;3.80;99.90;;;;;;5115869;28;20943;-84
2021/01/18 06:56:21;;;;;;;17.17;9.37;;;3.80;99.90;;;;;;5115467;28;20178;-85
2021/01/18 06:58:56;;;;;;;17.87;9.83;;;3.80;99.90;;;;;;5130861;28;20198;-84
2021/01/18 07:01:31;;;;;;;18.77;10.90;;;3.80;99.90;;;;;;5101949;28;20183;-84
2021/01/18 07:04:11;;;;;;;23.10;10.73;;;3.80;99.90;;;;;;5099892;28;20193;-85
2021/01/18 07:06:41;;;;;;;14.33;9.73;;;3.80;99.90;;;;;;5094245;28;20189;-84
2021/01/18 07:09:21;;;;;;;22.43;10.27;;;3.80;99.90;;;;;;5116475;28;20211;-84
2021/01/18 07:12:00;;;;;;;22.07;9.23;;;3.90;99.90;;;;;;5115915;28;20183;-88
2021/01/18 07:14:29;;;;;;;16.43;9.30;;;3.70;99.90;;;;;;5097999;28;20198;-85
2021/01/18 07:17:06;;;;;;;19.80;9.87;;;3.80;99.90;;;;;;5097928;28;20186;-86
2021/01/18 07:19:45;;;;;;;18.77;9.83;;;3.80;99.90;;;;;;5098958;28;20191;-83
2021/01/18 07:22:23;;;;;;;17.30;9.53;;;3.80;99.90;;;;;;5116558;28;20175;-84
2021/01/18 07:24:58;;;;;;;17.90;9.70;;;3.70;99.90;;;;;;5097185;28;20199;-88
2021/01/18 07:27:25;;;;;;;17.67;9.27;;;3.70;99.90;;;;;;5115897;28;20182;-84
2021/01/18 07:29:51;;;;;;;20.20;9.90;;;3.70;99.90;;;;;;5114998;28;20703;-84
2021/01/18 07:32:17;;;;;;;21.80;10.07;;;3.80;99.90;;;;;;5096873;28;20193;-85
2021/01/18 07:34:43;;;;;;;15.67;9.47;;;3.70;99.90;;;;;;5096966;28;20684;-85
2021/01/18 07:37:11;;;;;;;18.73;9.37;;;3.60;99.90;;;;;;5095754;28;20260;-88
2021/01/18 07:39:41;;;;;;;17.43;9.93;;;3.60;99.90;;;;;;5096801;28;20249;-84
2021/01/18 07:42:32;;;;;;;19.17;9.13;;;3.60;99.90;;;;;;5130810;27;20186;-88
2021/01/18 07:45:10;;;;;;;18.13;10.57;;;3.60;99.90;;;;;;5096447;28;20186;-88
2021/01/18 07:47:57;;;;;;;19.80;10.07;;;3.60;99.90;;;;;;5096084;28;20179;-89
2021/01/18 07:50:31;;;;;;;16.77;9.50;;;3.60;99.90;;;;;;5096493;28;20178;-83
2021/01/18 07:53:01;;;;;;;24.27;11.57;;;3.60;99.90;;;;;;5096493;28;20198;-89
2021/01/18 07:55:28;;;;;;;17.03;9.27;;;3.60;99.90;;;;;;5095843;28;20310;-86
2021/01/18 07:57:54;;;;;;;18.20;10.43;;;3.70;99.90;;;;;;5130154;27;20639;-84
2021/01/18 08:00:19;;;;;;;18.07;10.17;;;3.70;99.90;;;;;;5096115;28;20189;-85
2021/01/18 08:02:52;;;;;;;21.20;10.73;;;3.80;99.90;;;;;;5096067;28;20182;-88
2021/01/18 08:05:32;;;;;;;22.30;9.60;;;3.80;99.90;;;;;;5096295;28;20183;-84
2021/01/18 08:08:27;;;;;;;18.33;9.97;;;3.90;99.90;;;;;;5130186;27;20670;-83
2021/01/18 08:10:59;;;;;;;22.33;9.67;;;3.80;99.90;;;;;;5096066;28;20270;-88
2021/01/18 08:13:42;;;;;;;17.93;8.87;;;3.80;99.90;;;;;;5096109;28;20183;-84
2021/01/18 08:16:19;;;;;;;22.73;9.80;;;3.80;99.90;;;;;;5130124;27;20575;-84
2021/01/18 08:18:55;;;;;;;17.33;10.10;;;3.80;99.90;;;;;;5129884;27;20186;-86
2021/01/18 08:21:39;;;;;;;19.60;8.87;;;3.80;99.90;;;;;;5113836;28;20182;-84
2021/01/18 08:24:15;;;;;;;23.23;9.93;;;4.00;99.90;;;;;;5113763;28;20239;-84
2021/01/18 08:27:01;;;;;;;19.20;9.90;;;4.00;99.90;;;;;;5112988;28;20190;-84
2021/01/18 08:29:44;;;;;;;17.80;9.30;;;3.90;99.90;;;;;;5094958;28;20238;-87
2021/01/18 08:32:22;;;;;;;20.13;10.20;;;3.90;99.90;;;;;;5129137;27;20175;-86
2021/01/18 08:34:52;;;;;;;17.23;8.63;;;4.00;99.90;;;;;;5095809;28;20213;-86
2021/01/18 08:37:18;;;;;;;19.50;8.37;;;4.00;99.90;;;;;;5114036;28;20175;-86
2021/01/18 08:39:55;;;;;;;21.13;9.33;;;4.10;99.90;;;;;;5113741;28;20189;-85
2021/01/18 08:42:33;;;;;;;17.60;8.57;;;4.20;99.90;;;;;;5113819;28;20711;-87
2021/01/18 08:45:22;;;;;;;16.17;8.87;;;4.30;99.90;;;;;;5095655;28;20171;-86
2021/01/18 08:47:57;;;;;;;20.47;7.87;;;4.40;99.90;;;;;;5098781;28;20210;-87
2021/01/18 08:50:35;;;;;;;15.93;7.87;;;4.40;99.90;;;;;;5098429;28;20204;-86
2021/01/18 08:53:30;;;;;;;16.97;7.67;;;4.40;99.90;;;;;;5113972;28;20186;-84
2021/01/18 08:56:25;;;;;;;15.67;7.70;;;4.50;99.90;;;;;;5096876;28;20266;-85
2021/01/18 08:58:51;;;;;;;15.20;7.63;;;4.50;99.90;;;;;;5124966;27;20274;-84
2021/01/18 09:01:27;;;;;;;13.67;7.37;;;4.60;99.90;;;;;;5111312;28;20241;-85
2021/01/18 09:04:00;;;;;;;16.93;7.60;;;4.50;99.90;;;;;;5094674;28;20206;-84
2021/01/18 09:06:26;;;;;;;13.87;6.83;;;4.60;99.90;;;;;;5094247;28;20232;-83
2021/01/18 09:09:05;;;;;;;26.03;7.80;;;4.60;99.90;;;;;;5112714;28;20210;-84
2021/01/18 09:11:32;;;;;;;20.30;7.23;;;4.60;99.90;;;;;;5094559;28;20302;-83
2021/01/18 09:13:58;;;;;;;19.00;8.67;;;4.60;99.90;;;;;;5094592;28;20527;-85
2021/01/18 09:16:24;;;;;;;20.27;7.83;;;4.70;99.90;;;;;;5094284;28;20175;-85
2021/01/18 09:19:13;;;;;;;18.43;7.20;;;4.70;99.90;;;;;;5094689;28;20265;-83
2021/01/18 09:21:38;;;;;;;17.43;7.10;;;4.70;99.90;;;;;;5093481;28;20650;-84
2021/01/18 09:24:10;;;;;;;16.00;7.17;;;4.80;99.90;;;;;;5094632;28;20211;-85
2021/01/18 09:26:37;;;;;;;16.00;7.37;;;4.80;99.90;;;;;;5093087;28;20202;-85
2021/01/18 09:29:03;;;;;;;14.97;7.90;;;4.80;99.90;;;;;;5074473;28;20218;-83
2021/01/18 09:31:29;;;;;;;17.13;7.17;;;5.00;99.90;;;;;;5097513;28;20202;-85
2021/01/18 09:34:10;;;;;;;14.83;6.67;;;4.90;99.90;;;;;;5093695;28;20239;-84
2021/01/18 09:36:42;;;;;;;19.27;7.57;;;5.10;99.90;;;;;;5093886;28;20186;-83
2021/01/18 09:39:20;;;;;;;19.37;7.97;;;5.10;99.90;;;;;;5112147;28;20271;-84
2021/01/18 09:41:46;;;;;;;11.30;6.90;;;5.20;99.90;;;;;;5096831;28;20287;-84
2021/01/18 09:44:54;;;;;;;18.23;6.83;;;5.20;99.90;;;;;;5097704;28;20280;-84
2021/01/18 09:47:22;;;;;;;13.80;7.17;;;5.20;99.90;;;;;;5046458;28;20564;-85
2021/01/18 09:49:48;;;;;;;20.53;7.07;;;5.30;99.90;;;;;;5116511;28;20218;-84
2021/01/18 09:52:16;;;;;;;16.83;6.87;;;5.30;99.90;;;;;;5097623;28;20654;-85
2021/01/18 09:54:49;;;;;;;13.90;6.97;;;5.30;99.90;;;;;;5098101;28;20591;-84
2021/01/18 09:57:24;;;;;;;14.43;6.23;;;5.30;99.90;;;;;;5097928;28;20543;-84
2021/01/18 09:59:53;;;;;;;13.63;6.10;;;5.50;99.90;;;;;;5097901;28;20277;-84
2021/01/18 10:02:22;;;;;;;17.27;6.63;;;5.40;99.90;;;;;;5098072;28;20187;-84
2021/01/18 10:04:49;;;;;;;17.87;5.70;;;5.50;99.90;;;;;;5097467;28;20561;-84
2021/01/18 10:07:15;;;;;;;13.63;6.37;;;5.50;99.90;;;;;;5097841;28;20191;-85
2021/01/18 10:09:42;;;;;;;18.60;7.83;;;5.60;99.90;;;;;;5097610;28;20219;-83
2021/01/18 10:12:31;;;;;;;16.00;6.77;;;5.70;99.90;;;;;;5097741;28;20198;-82
2021/01/18 10:15:09;;;;;;;14.03;6.00;;;5.70;99.90;;;;;;5097347;28;20638;-84
2021/01/18 10:17:35;;;;;;;15.60;5.63;;;5.80;99.90;;;;;;5097760;28;20543;-84
2021/01/18 10:20:07;;;;;;;13.87;6.33;;;5.80;99.90;;;;;;5098328;28;20202;-84
2021/01/18 10:22:37;;;;;;;13.90;6.00;;;6.00;99.90;;;;;;5098438;28;20190;-83
2021/01/18 10:25:09;;;;;;;13.90;6.23;;;6.00;99.90;;;;;;5097116;28;20303;-84
2021/01/18 10:27:36;;;;;;;16.63;6.60;;;6.10;99.90;;;;;;5096697;28;20209;-84
2021/01/18 10:30:12;;;;;;;20.37;7.73;;;6.00;99.90;;;;;;5097346;28;20183;-84
2021/01/18 10:32:49;;;;;;;15.37;6.17;;;6.00;99.90;;;;;;5097022;28;20193;-85
2021/01/18 10:35:35;;;;;;;14.90;6.13;;;6.10;99.90;;;;;;5097387;28;20193;-84
2021/01/18 10:38:22;;;;;;;16.47;6.07;;;6.20;99.90;;;;;;5097766;28;20660;-86
2021/01/18 10:41:04;;;;;;;13.17;6.00;;;6.30;99.90;;;;;;5115818;28;20179;-84
2021/01/18 10:43:30;;;;;;;13.43;5.73;;;6.30;99.90;;;;;;5114963;28;20217;-86
2021/01/18 10:45:57;;;;;;;15.70;6.50;;;6.30;99.90;;;;;;5097027;28;20214;-86
2021/01/18 10:48:33;;;;;;;16.87;6.23;;;6.40;99.90;;;;;;5096734;28;20215;-85
2021/01/18 10:51:02;;;;;;;14.97;5.80;;;6.40;99.90;;;;;;5115151;28;20178;-86
2021/01/18 10:53:29;;;;;;;15.90;9.53;;;6.40;99.90;;;;;;5114067;28;20579;-83
2021/01/18 10:56:32;;;;;;;17.73;8.60;;;6.40;99.90;;;;;;5096904;28;20615;-84
2021/01/18 10:58:58;;;;;;;21.63;8.17;;;6.50;99.90;;;;;;5083203;28;20278;-85
2021/01/18 11:01:24;;;;;;;14.93;6.90;;;6.50;99.90;;;;;;5096264;28;20207;-85
2021/01/18 11:03:50;;;;;;;15.33;7.17;;;6.60;99.90;;;;;;5096680;28;20198;-83
2021/01/18 11:06:18;;;;;;;14.20;6.63;;;6.60;99.90;;;;;;5096314;28;20171;-84
2021/01/18 11:08:44;;;;;;;18.03;6.67;;;6.70;99.90;;;;;;5096832;28;20211;-83
2021/01/18 11:11:21;;;;;;;13.77;5.97;;;6.70;99.90;;;;;;5114407;28;20187;-83
2021/01/18 11:13:47;;;;;;;12.93;5.50;;;6.60;99.90;;;;;;5096207;28;20182;-85
2021/01/18 11:16:15;;;;;;;17.50;6.40;;;6.60;99.90;;;;;;5114504;28;20193;-85
2021/01/18 11:18:41;;;;;;;14.00;5.83;;;6.60;99.90;;;;;;5114753;28;20552;-84
2021/01/18 11:21:07;;;;;;;14.23;6.43;;;6.60;99.90;;;;;;5096127;28;20175;-85
2021/01/18 11:23:33;;;;;;;13.93;6.30;;;6.70;99.90;;;;;;5115646;28;20202;-84
2021/01/18 11:25:59;;;;;;;15.57;6.10;;;6.80;99.90;;;;;;5113746;28;20175;-83
2021/01/18 11:28:25;;;;;;;15.20;6.50;;;6.80;99.90;;;;;;5095742;28;20574;-85
2021/01/18 11:30:51;;;;;;;15.63;6.10;;;6.80;99.90;;;;;;5095681;28;20497;-84
2021/01/18 11:33:17;;;;;;;13.73;6.00;;;6.80;99.90;;;;;;5095681;28;20187;-82
2021/01/18 11:35:44;;;;;;;14.73;6.63;;;7.00;99.90;;;;;;5113967;28;20167;-86
2021/01/18 11:38:11;;;;;;;13.87;6.43;;;7.00;99.90;;;;;;5095457;28;20178;-82
2021/01/18 11:40:37;;;;;;;16.40;6.30;;;7.10;99.90;;;;;;5092605;28;20188;-85
2021/01/18 11:43:03;;;;;;;19.33;6.73;;;7.20;99.90;;;;;;5093124;28;20244;-84
2021/01/18 11:45:29;;;;;;;12.20;6.10;;;7.10;99.90;;;;;;5102599;28;20233;-87
2021/01/18 11:47:55;;;;;;;19.50;6.67;;;7.10;99.90;;;;;;5112101;28;20214;-85
2021/01/18 11:50:21;;;;;;;17.07;6.30;;;7.10;99.90;;;;;;5113068;28;20183;-84
2021/01/18 11:52:48;;;;;;;11.63;5.87;;;7.20;99.90;;;;;;5111206;28;20273;-84
2021/01/18 11:55:16;;;;;;;15.00;6.60;;;7.10;99.90;;;;;;5112713;28;20286;-85
2021/01/18 11:57:50;;;;;;;15.53;7.00;;;7.00;99.90;;;;;;5111679;28;20190;-84
2021/01/18 12:00:36;;;;;;;16.30;7.03;;;7.00;99.90;;;;;;5112776;28;20175;-84
2021/01/18 12:03:01;;;;;;;13.33;5.80;;;7.00;99.90;;;;;;5095859;28;20191;-84
2021/01/18 12:05:28;;;;;;;13.17;6.63;;;6.90;99.90;;;;;;5093797;28;20195;-83
2021/01/18 12:07:54;;;;;;;14.80;7.07;;;7.00;99.90;;;;;;5096064;28;20195;-84
2021/01/18 12:10:20;;;;;;;16.97;6.30;;;7.10;99.90;;;;;;5095239;27;20202;-85
2021/01/18 12:12:46;;;;;;;12.80;6.70;;;7.10;99.90;;;;;;5113146;27;20273;-85
2021/01/18 12:15:12;;;;;;;16.20;7.03;;;7.10;99.90;;;;;;5111997;28;20194;-84
2021/01/18 12:17:40;;;;;;;15.10;6.43;;;7.10;99.90;;;;;;5111427;28;20186;-85
2021/01/18 12:20:10;;;;;;;12.13;6.87;;;7.20;99.90;;;;;;5111591;28;20187;-85
2021/01/18 12:22:36;;;;;;;13.10;6.50;;;7.00;99.90;;;;;;5113093;28;20182;-83
2021/01/18 12:25:07;;;;;;;14.17;6.87;;;6.90;99.90;;;;;;5111381;28;20331;-85
2021/01/18 12:27:33;;;;;;;15.53;7.60;;;7.00;99.90;;;;;;5111703;28;20186;-85
2021/01/18 12:29:59;;;;;;;16.80;6.80;;;7.00;99.90;;;;;;5110877;28;20667;-85
2021/01/18 12:32:25;;;;;;;14.17;6.70;;;7.00;99.90;;;;;;5110917;28;20319;-85
2021/01/18 12:34:51;;;;;;;14.13;5.97;;;7.00;99.90;;;;;;5110767;28;20191;-83
2021/01/18 12:37:17;;;;;;;15.40;6.87;;;6.90;99.90;;;;;;5110945;28;20182;-84
2021/01/18 12:39:43;;;;;;;13.87;6.47;;;7.00;99.90;;;;;;5110635;28;20186;-85
2021/01/18 12:42:09;;;;;;;13.23;6.23;;;7.10;99.90;;;;;;5114288;27;20551;-84
2021/01/18 12:44:34;;;;;;;13.40;6.00;;;7.10;99.90;;;;;;5108248;28;20217;-85
2021/01/18 12:47:05;;;;;;;13.30;6.60;;;7.10;99.90;;;;;;5094417;28;20186;-83
2021/01/18 12:49:31;;;;;;;15.97;6.47;;;7.10;99.90;;;;;;5093738;28;20211;-84
2021/01/18 12:51:57;;;;;;;12.93;6.83;;;7.00;99.90;;;;;;5093689;28;20293;-85
2021/01/18 12:54:22;;;;;;;15.80;6.73;;;7.10;99.90;;;;;;5093227;28;20269;-85
2021/01/18 12:56:51;;;;;;;18.57;7.20;;;7.10;99.90;;;;;;5093739;28;20714;-85
2021/01/18 12:59:17;;;;;;;11.67;6.33;;;7.20;99.90;;;;;;5109965;28;20190;-84
2021/01/18 13:01:44;;;;;;;18.60;7.33;;;7.20;99.90;;;;;;5092801;28;20190;-85
2021/01/18 13:04:09;;;;;;;14.43;6.40;;;7.20;99.90;;;;;;5073402;28;20191;-86